Flight Track Log - Related Links

Times and Time Zones

All times are in EDT time to prevent confusion due to time zone crossing. See the EJA396 flight status page for this flight to view local times or setup timezone preferences in your user account.

Time Position Orientation Groundspeed Altitude Reporting Facility
EDT Latitude Longitude Course Direction KTS MPH feet Rate Location/Type
Fri 08:28:34 AM 44.8833 -93.2667 287° West 208 239 3,500  Level Minneapolis TRACON
Fri 08:29:07 AM 44.8922 -93.3081 287° West 221 254 5,800 2,234 Climbing Minneapolis Center
Fri 08:30:08 AM 44.8758 -93.4000 256° West 248 285 7,000 2,262 Climbing Minneapolis Center
Fri 08:31:09 AM 44.8075 -93.3789 168° South 291 335 10,400 3,805 Climbing Minneapolis Center
Fri 08:32:11 AM 44.7358 -93.3225 151° Southeast 300 345 14,800 4,244 Climbing Minneapolis Center
Fri 08:33:12 AM 44.6411 -93.2417 149° Southeast 344 396 19,100 3,805 Climbing Minneapolis Center
Fri 08:34:14 AM 44.5556 -93.1706 149° Southeast 356 410 22,600 3,339 Climbing Minneapolis Center
Fri 08:35:16 AM 44.4642 -93.1169 157° South 357 411 26,000 2,976 Climbing Minneapolis Center
Fri 08:36:17 AM 44.3697 -93.0744 162° South 357 411 28,700 2,293 Climbing Minneapolis Center
Fri 08:37:19 AM 44.2742 -93.0303 162° South 359 413 30,700 1,122 Climbing Minneapolis Center
Fri 08:38:20 AM 44.1744 -92.9847 162° South 374 430 31,000 146 Climbing Minneapolis Center
Fri 08:39:22 AM 44.0700 -92.9389 162° South 390 449 31,000  Level Minneapolis Center
Fri 08:40:23 AM 43.9500 -92.8850 162° South 384 442 31,000  Level Minneapolis Center
Fri 08:41:25 AM 43.8567 -92.8425 162° South 358 412 31,000  Level Minneapolis Center
Fri 08:42:26 AM 43.7583 -92.7969 161° South 355 409 31,000  Level Minneapolis Center
Fri 08:43:28 AM 43.6653 -92.7564 163° South 355 409 31,000  Level Minneapolis Center
Fri 08:44:30 AM 43.5744 -92.7142 161° South 352 405 31,000  Level Minneapolis Center
Fri 08:45:31 AM 43.4817 -92.6742 163° South 350 403 31,000  Level Minneapolis Center
Fri 08:46:33 AM 43.3900 -92.6333 162° South 350 403 31,000  Level Minneapolis Center
Fri 08:47:26 AM 43.2967 -92.5942 163° South 349 402 31,000  Level Chicago Center
Fri 08:48:28 AM 43.2047 -92.5519 161° South 350 403 31,000  Level Chicago Center
Fri 08:49:30 AM 43.1128 -92.5119 162° South 350 403 31,000  Level Chicago Center
Fri 08:50:31 AM 43.0211 -92.4719 162° South 350 403 31,000  Level Chicago Center
Fri 08:51:33 AM 42.9297 -92.4319 162° South 348 400 31,000  Level Chicago Center
Fri 08:52:42 AM 42.8233 -92.3858 162° South 346 398 31,000  Level Minneapolis Center
Fri 08:53:36 AM 42.7325 -92.3461 162° South 344 396 31,000  Level Chicago Center
Fri 08:54:38 AM 42.6439 -92.3067 162° South 342 394 31,000  Level Chicago Center
Fri 08:55:40 AM 42.5547 -92.2689 163° South 341 392 31,000  Level Chicago Center
Fri 08:56:41 AM 42.4675 -92.2311 162° South 339 390 31,000  Level Chicago Center
Fri 08:57:43 AM 42.3586 -92.1856 163° South 341 392 31,000  Level Chicago Center
Fri 08:58:45 AM 42.2661 -92.1439 162° South 349 402 31,000  Level Chicago Center
Fri 08:59:46 AM 42.1736 -92.1078 164° South 350 403 31,000  Level Chicago Center
Fri 09:00:48 AM 42.0811 -92.0667 162° South 350 403 31,000  Level Chicago Center
Fri 09:01:50 AM 41.9875 -92.0275 163° South 352 405 31,000  Level Chicago Center
Fri 09:02:52 AM 41.8942 -91.9892 163° South 353 406 31,000  Level Chicago Center
Fri 09:03:53 AM 41.7819 -91.9417 162° South 353 406 31,000  Level Chicago Center
Fri 09:04:55 AM 41.6875 -91.9031 163° South 355 409 31,000 -484 Level Chicago Center
Fri 09:05:57 AM 41.5950 -91.8644 163° South 353 406 30,000 -1,210 Descending Chicago Center
Fri 09:06:59 AM 41.5014 -91.8261 163° South 352 405 28,500 -1,659 Descending Chicago Center
Fri 09:08:00 AM 41.4061 -91.7867 163° South 358 412 26,600 -1,902 Descending Chicago Center
Fri 09:09:02 AM 41.3147 -91.7475 162° South 349 402 24,600 -2,081 Descending Chicago Center
Fri 09:10:04 AM 41.2133 -91.7061 163° South 339 390 22,300 -2,129 Descending Chicago Center
Fri 09:11:06 AM 41.1172 -91.6669 163° South 336 387 20,200 -1,935 Descending Chicago Center
Fri 09:12:08 AM 41.0339 -91.6336 163° South 337 388 18,300 -2,000 Descending Chicago Center
Fri 09:13:09 AM 40.9392 -91.5947 163° South 336 387 16,100 -2,129 Descending Chicago Center
Fri 09:14:43 AM 40.7975 -91.5375 163° South 335 386 12,800 -1,984 Descending Kansas City Center
Fri 09:15:13 AM 40.7647 -91.5236 162° South 332 382 12,000 -1,161 Descending Chicago Center
Fri 09:16:16 AM 40.6594 -91.4817 163° South 331 381 11,000 -484 Descending Chicago Center
Fri 09:17:17 AM 40.5703 -91.4453 163° South 333 383 11,000  Level Chicago Center
Fri 09:18:19 AM 40.4817 -91.4094 163° South 335 386 11,000 -290 Level Chicago Center
Fri 09:19:21 AM 40.3933 -91.3753 164° South 334 384 10,400 -1,016 Descending Chicago Center
Fri 09:20:23 AM 40.3169 -91.3444 163° South 309 356 8,900 -1,452 Descending Chicago Center
Fri 09:21:25 AM 40.2461 -91.3153 163° South 280 322 7,400 -1,597 Descending Chicago Center
Fri 09:22:27 AM 40.1606 -91.2828 164° South 273 314 5,600 -1,597 Descending Chicago Center
Fri 09:23:29 AM 40.0883 -91.2533 163° South 273 314 4,100 -1,452 Descending Chicago Center

Login

Don't have an account? Register now (free) for customized features, flight alerts, and more!